createdAt,value
2023-05-25T00:01:03.345Z,100.00
2023-05-25T00:03:32.375Z,100.00
2023-05-25T00:06:02.443Z,100.00
2023-05-25T00:08:30.109Z,100.00
2023-05-25T00:10:56.850Z,100.00
2023-05-25T00:13:23.551Z,100.00
2023-05-25T00:15:50.743Z,100.00
2023-05-25T00:18:18.747Z,100.00
2023-05-25T00:20:47.823Z,100.00
2023-05-25T00:23:14.690Z,100.00
2023-05-25T00:25:41.784Z,100.00
2023-05-25T00:28:08.787Z,100.00
2023-05-25T00:30:35.518Z,100.00
2023-05-25T00:33:03.024Z,100.00
2023-05-25T00:35:29.805Z,100.00
2023-05-25T00:37:56.505Z,100.00
2023-05-25T00:40:23.217Z,100.00
2023-05-25T00:42:51.042Z,100.00
2023-05-25T00:45:18.224Z,100.00
2023-05-25T00:47:46.315Z,100.00
2023-05-25T00:50:15.352Z,100.00
2023-05-25T00:52:42.233Z,100.00
2023-05-25T00:55:12.229Z,100.00
2023-05-25T00:57:42.132Z,100.00
2023-05-25T01:00:12.764Z,100.00
2023-05-25T01:02:41.342Z,100.00
2023-05-25T01:05:10.814Z,100.00
2023-05-25T01:07:39.679Z,100.00
2023-05-25T01:10:07.350Z,100.00
2023-05-25T01:12:38.083Z,100.00
2023-05-25T01:15:06.569Z,100.00
2023-05-25T01:17:38.576Z,100.00
2023-05-25T01:20:13.186Z,100.00
2023-05-25T01:23:01.600Z,100.00
2023-05-25T01:25:40.744Z,100.00
2023-05-25T01:28:11.501Z,100.00
2023-05-25T01:30:42.190Z,100.00
2023-05-25T01:33:11.068Z,100.00
2023-05-25T01:35:40.551Z,100.00
2023-05-25T01:38:08.690Z,100.00
2023-05-25T01:40:35.292Z,100.00
2023-05-25T01:43:02.166Z,100.00
2023-05-25T01:45:30.080Z,100.00
2023-05-25T01:48:05.892Z,100.00
2023-05-25T01:50:41.511Z,100.00
2023-05-25T01:53:16.360Z,100.00
2023-05-25T01:55:48.568Z,100.00
2023-05-25T01:58:17.028Z,100.00
2023-05-25T02:00:45.408Z,100.00
2023-05-25T02:03:12.600Z,100.00
2023-05-25T02:05:42.378Z,100.00
2023-05-25T02:08:09.401Z,100.00
2023-05-25T02:10:36.145Z,100.00
2023-05-25T02:13:02.910Z,100.00
2023-05-25T02:15:32.973Z,100.00
2023-05-25T02:18:01.150Z,100.00
2023-05-25T02:20:28.886Z,100.00
2023-05-25T02:22:55.552Z,100.00
2023-05-25T02:25:22.308Z,100.00
2023-05-25T02:27:49.243Z,100.00
2023-05-25T02:30:15.940Z,100.00
2023-05-25T02:32:42.771Z,100.00
2023-05-25T02:35:09.975Z,100.00
2023-05-25T02:37:36.716Z,100.00
2023-05-25T02:40:05.365Z,100.00
2023-05-25T02:42:32.138Z,100.00
2023-05-25T02:44:59.215Z,100.00
2023-05-25T02:47:26.289Z,100.00
2023-05-25T02:49:53.105Z,100.00
2023-05-25T02:52:19.921Z,100.00
2023-05-25T02:54:46.618Z,100.00
2023-05-25T02:57:13.253Z,100.00
2023-05-25T02:59:39.871Z,100.00
2023-05-25T03:02:06.452Z,100.00
2023-05-25T03:04:34.435Z,100.00
2023-05-25T03:07:01.946Z,100.00
2023-05-25T03:09:29.156Z,100.00
2023-05-25T03:11:56.003Z,100.00
2023-05-25T03:14:22.645Z,100.00
2023-05-25T03:16:51.507Z,100.00
2023-05-25T03:19:20.722Z,100.00
2023-05-25T03:21:48.003Z,100.00
2023-05-25T03:24:14.694Z,100.00
2023-05-25T03:26:41.371Z,100.00
2023-05-25T03:29:08.079Z,100.00
2023-05-25T03:31:34.815Z,100.00
2023-05-25T03:34:01.542Z,100.00
2023-05-25T03:36:28.237Z,100.00
2023-05-25T03:38:54.962Z,100.00
2023-05-25T03:41:21.941Z,100.00
2023-05-25T03:43:48.707Z,100.00
2023-05-25T03:46:16.160Z,100.00
2023-05-25T03:48:43.004Z,100.00
2023-05-25T03:51:09.855Z,96.03
2023-05-25T03:53:36.698Z,91.44
2023-05-25T03:56:03.323Z,90.56
2023-05-25T03:58:29.936Z,91.65
2023-05-25T04:00:56.939Z,89.97
2023-05-25T04:03:24.092Z,86.04
2023-05-25T04:05:50.836Z,82.22
2023-05-25T04:08:20.547Z,76.07
2023-05-25T04:10:47.528Z,70.92
2023-05-25T04:13:14.873Z,67.83
2023-05-25T04:15:41.652Z,63.02
2023-05-25T04:18:08.530Z,60.20
2023-05-25T04:20:36.234Z,58.24
2023-05-25T04:23:03.357Z,56.45
2023-05-25T04:25:30.054Z,56.96
2023-05-25T04:27:57.031Z,59.80
2023-05-25T04:30:24.184Z,61.67
2023-05-25T04:32:50.929Z,61.40
2023-05-25T04:35:20.992Z,62.21
2023-05-25T04:37:48.836Z,64.52
2023-05-25T04:40:16.024Z,65.37
2023-05-25T04:42:42.776Z,67.24
2023-05-25T04:45:17.729Z,65.85
2023-05-25T04:47:45.417Z,64.70
2023-05-25T04:50:12.371Z,65.98
2023-05-25T04:52:39.135Z,63.84
2023-05-25T04:55:06.475Z,62.22
2023-05-25T04:57:33.621Z,61.18
2023-05-25T05:00:00.709Z,60.33
2023-05-25T05:02:28.453Z,57.84
2023-05-25T05:04:55.291Z,56.23
2023-05-25T05:07:22.386Z,53.58
2023-05-25T05:09:49.809Z,52.47
2023-05-25T05:12:16.781Z,50.83
2023-05-25T05:14:43.823Z,51.02
2023-05-25T05:17:10.772Z,51.29
2023-05-25T05:19:37.849Z,53.04
2023-05-25T05:22:04.663Z,52.66
2023-05-25T05:24:31.360Z,51.68
2023-05-25T05:26:59.145Z,51.72
2023-05-25T05:29:27.052Z,50.96
2023-05-25T05:31:55.567Z,51.22
2023-05-25T05:34:22.565Z,51.50
2023-05-25T05:36:57.206Z,51.64
2023-05-25T05:39:25.251Z,53.90
2023-05-25T05:41:52.134Z,53.38
2023-05-25T05:44:24.625Z,52.68
2023-05-25T05:47:00.027Z,52.65
2023-05-25T05:49:28.331Z,53.36
2023-05-25T05:51:55.009Z,52.85
2023-05-25T05:54:21.683Z,52.30
2023-05-25T05:56:48.663Z,53.22
2023-05-25T05:59:15.360Z,51.64
2023-05-25T06:01:42.870Z,51.46
2023-05-25T06:04:09.982Z,50.80
2023-05-25T06:06:37.710Z,51.30
2023-05-25T06:09:06.914Z,51.85
2023-05-25T06:11:39.918Z,51.21
2023-05-25T06:14:09.265Z,50.97
2023-05-25T06:16:36.632Z,49.91
2023-05-25T06:19:03.453Z,48.98
2023-05-25T06:21:30.075Z,47.91
2023-05-25T06:23:59.893Z,48.59
2023-05-25T06:26:27.357Z,47.43
2023-05-25T06:28:54.059Z,47.83
2023-05-25T06:31:21.120Z,46.90
2023-05-25T06:33:47.913Z,47.95
2023-05-25T06:36:15.708Z,47.68
2023-05-25T06:38:43.172Z,47.53
2023-05-25T06:41:12.899Z,48.43
2023-05-25T06:43:39.600Z,48.55
2023-05-25T06:46:07.026Z,48.33
2023-05-25T06:48:33.798Z,49.57
2023-05-25T06:51:00.737Z,50.81
2023-05-25T06:53:27.526Z,51.89
2023-05-25T06:55:54.573Z,50.92
2023-05-25T06:58:21.409Z,50.24
2023-05-25T07:00:48.196Z,50.97
2023-05-25T07:03:14.859Z,50.98
2023-05-25T07:05:41.651Z,49.64
2023-05-25T07:08:08.485Z,50.25
2023-05-25T07:10:35.536Z,51.26
2023-05-25T07:13:02.142Z,51.11
2023-05-25T07:15:28.894Z,52.00
2023-05-25T07:17:57.344Z,50.80
2023-05-25T07:20:24.630Z,49.98
2023-05-25T07:22:51.630Z,49.86
2023-05-25T07:25:18.349Z,50.47
2023-05-25T07:27:49.023Z,50.01
2023-05-25T07:30:15.933Z,50.57
2023-05-25T07:32:42.907Z,50.71
2023-05-25T07:35:09.621Z,49.58
2023-05-25T07:37:36.396Z,50.57
2023-05-25T07:40:03.666Z,50.48
2023-05-25T07:42:34.370Z,50.58
2023-05-25T07:45:01.934Z,49.78
2023-05-25T07:47:29.761Z,50.30
2023-05-25T07:49:56.590Z,50.66
2023-05-25T07:52:23.300Z,51.92
2023-05-25T07:54:50.084Z,53.65
2023-05-25T07:57:16.736Z,54.56
2023-05-25T07:59:45.095Z,55.30
2023-05-25T08:02:12.142Z,55.90
2023-05-25T08:04:39.092Z,56.62
2023-05-25T08:07:05.890Z,57.37
2023-05-25T08:09:32.589Z,57.26
2023-05-25T08:12:21.392Z,59.09
2023-05-25T08:14:46.948Z,62.31
2023-05-25T08:17:13.798Z,67.35
2023-05-25T08:19:40.610Z,72.46
2023-05-25T08:22:07.383Z,73.28
2023-05-25T08:24:34.004Z,77.39
2023-05-25T08:27:02.431Z,81.24
2023-05-25T08:29:29.195Z,83.22
2023-05-25T08:31:55.898Z,97.28
2023-05-25T08:34:22.568Z,100.00
2023-05-25T08:36:49.382Z,100.00
2023-05-25T08:39:16.861Z,100.00
2023-05-25T08:41:45.705Z,100.00
2023-05-25T08:44:14.721Z,100.00
2023-05-25T08:46:42.231Z,100.00
2023-05-25T08:49:11.176Z,100.00
2023-05-25T08:51:42.528Z,100.00
2023-05-25T08:54:18.327Z,100.00
2023-05-25T08:56:55.357Z,100.00
2023-05-25T08:59:51.609Z,100.00
2023-05-25T09:02:29.273Z,100.00
2023-05-25T09:04:56.601Z,100.00
2023-05-25T09:07:24.134Z,100.00
2023-05-25T09:09:51.670Z,100.00
2023-05-25T09:12:19.289Z,100.00
2023-05-25T09:14:48.320Z,100.00
2023-05-25T09:17:16.944Z,100.00
2023-05-25T09:19:44.235Z,100.00
2023-05-25T09:22:15.641Z,100.00
2023-05-25T09:24:44.632Z,100.00
2023-05-25T09:27:13.327Z,100.00
2023-05-25T09:29:40.041Z,100.00
2023-05-25T09:32:07.237Z,100.00
2023-05-25T09:34:34.728Z,100.00
2023-05-25T09:37:03.890Z,100.00
2023-05-25T09:39:31.169Z,100.00
2023-05-25T09:41:58.502Z,100.00
2023-05-25T09:44:26.371Z,100.00
2023-05-25T09:46:53.958Z,100.00
2023-05-25T09:49:21.713Z,100.00
2023-05-25T09:51:48.477Z,100.00
2023-05-25T09:54:15.984Z,100.00
2023-05-25T09:56:42.594Z,100.00
2023-05-25T09:59:09.189Z,100.00
2023-05-25T10:01:37.303Z,100.00
2023-05-25T10:04:05.440Z,100.00
2023-05-25T10:06:34.067Z,100.00
2023-05-25T10:09:01.690Z,98.66
2023-05-25T10:11:29.500Z,95.72
2023-05-25T10:13:56.878Z,94.02
2023-05-25T10:16:28.073Z,94.53
2023-05-25T10:19:10.797Z,92.68
2023-05-25T10:21:39.727Z,88.66
2023-05-25T10:24:15.126Z,85.46
2023-05-25T10:26:49.413Z,88.29
2023-05-25T10:29:17.982Z,83.61
2023-05-25T10:31:45.769Z,84.60
2023-05-25T10:34:12.845Z,79.62
2023-05-25T10:36:41.409Z,74.28
2023-05-25T10:39:09.374Z,76.17
2023-05-25T10:41:36.280Z,78.29
2023-05-25T10:44:03.181Z,80.40
2023-05-25T10:46:29.949Z,79.05
2023-05-25T10:49:02.640Z,75.50
2023-05-25T10:51:41.838Z,73.20
2023-05-25T10:54:08.696Z,73.43
2023-05-25T10:56:35.372Z,73.69
2023-05-25T10:59:02.230Z,74.17
2023-05-25T11:01:33.720Z,72.84
2023-05-25T11:04:07.582Z,70.53
2023-05-25T11:06:37.891Z,71.86
2023-05-25T11:09:05.957Z,71.61
2023-05-25T11:11:47.716Z,68.74
2023-05-25T11:14:30.308Z,70.44
2023-05-25T11:17:18.767Z,67.53
2023-05-25T11:19:54.051Z,67.39
2023-05-25T11:22:32.552Z,69.19
2023-05-25T11:25:01.032Z,71.76
2023-05-25T11:27:29.399Z,74.13
2023-05-25T11:29:57.971Z,72.87
2023-05-25T11:32:29.379Z,71.37
2023-05-25T11:34:58.660Z,74.53
2023-05-25T11:37:28.959Z,72.15
2023-05-25T11:39:56.082Z,70.03
2023-05-25T11:42:24.637Z,71.95
2023-05-25T11:44:52.563Z,73.27
2023-05-25T11:47:23.318Z,75.98
2023-05-25T11:49:50.694Z,75.31
2023-05-25T11:52:19.086Z,75.22
2023-05-25T11:54:46.625Z,78.13
2023-05-25T11:57:22.729Z,82.67
2023-05-25T11:59:51.123Z,83.73
2023-05-25T12:02:18.375Z,86.07
2023-05-25T12:04:56.458Z,87.77
2023-05-25T12:07:24.394Z,86.37
2023-05-25T12:09:51.125Z,84.39
2023-05-25T12:12:18.026Z,80.74
2023-05-25T12:14:51.362Z,78.27
2023-05-25T12:17:21.593Z,76.84
2023-05-25T12:19:49.053Z,72.99
2023-05-25T12:22:16.789Z,73.09
2023-05-25T12:24:43.736Z,73.63
2023-05-25T12:27:19.345Z,71.22
2023-05-25T12:29:49.683Z,70.75
2023-05-25T12:32:16.821Z,71.45
2023-05-25T12:34:43.779Z,72.06
2023-05-25T12:37:21.788Z,70.83
2023-05-25T12:39:49.228Z,68.49
2023-05-25T12:42:17.407Z,69.79
2023-05-25T12:44:46.871Z,67.59
2023-05-25T12:47:23.465Z,64.80
2023-05-25T12:50:09.765Z,63.75
2023-05-25T12:52:38.283Z,64.66
2023-05-25T12:55:21.341Z,64.71
2023-05-25T12:57:52.660Z,65.24
2023-05-25T13:00:24.022Z,62.31
2023-05-25T13:02:52.044Z,62.61
2023-05-25T13:05:29.682Z,60.91
2023-05-25T13:07:57.983Z,57.77
2023-05-25T13:10:25.458Z,58.25
2023-05-25T13:12:54.160Z,55.24
2023-05-25T13:15:21.918Z,56.30
2023-05-25T13:17:51.048Z,56.98
2023-05-25T13:20:19.845Z,58.98
2023-05-25T13:22:48.848Z,57.28
2023-05-25T13:25:16.139Z,58.61
2023-05-25T13:27:48.937Z,57.25
2023-05-25T13:30:16.334Z,56.61
2023-05-25T13:32:43.922Z,55.52
2023-05-25T13:35:19.535Z,56.17
2023-05-25T13:37:46.419Z,56.41
2023-05-25T13:40:13.696Z,55.20
2023-05-25T13:42:40.935Z,54.31
2023-05-25T13:45:08.790Z,55.26
2023-05-25T13:47:35.524Z,54.36
2023-05-25T13:50:02.492Z,54.52
2023-05-25T13:52:29.563Z,54.66
2023-05-25T13:54:56.419Z,55.75
2023-05-25T13:57:23.087Z,56.40
2023-05-25T13:59:49.801Z,56.43
2023-05-25T14:02:16.716Z,55.82
2023-05-25T14:04:43.521Z,54.82
2023-05-25T14:07:10.209Z,54.90
2023-05-25T14:09:36.967Z,54.76
2023-05-25T14:12:03.950Z,54.97
2023-05-25T14:14:32.072Z,54.20
2023-05-25T14:17:01.103Z,54.85
2023-05-25T14:19:28.253Z,53.85
2023-05-25T14:24:25.026Z,53.76
2023-05-25T14:26:51.987Z,54.71
2023-05-25T14:29:18.832Z,54.48
2023-05-25T14:31:46.286Z,54.23
2023-05-25T14:34:13.158Z,53.17
2023-05-25T14:36:40.691Z,53.30
2023-05-25T14:39:08.380Z,53.55
2023-05-25T14:41:35.792Z,53.50
2023-05-25T14:44:22.177Z,53.87
2023-05-25T14:46:49.294Z,53.66
2023-05-25T14:49:17.016Z,53.76
2023-05-25T14:51:45.561Z,54.58
2023-05-25T14:54:13.796Z,54.28
2023-05-25T14:56:40.503Z,54.47
2023-05-25T14:59:07.238Z,54.49
2023-05-25T15:01:34.004Z,53.91
2023-05-25T15:04:00.812Z,53.34
2023-05-25T15:06:27.557Z,52.93
2023-05-25T15:08:54.543Z,52.39
2023-05-25T15:11:21.229Z,53.42
2023-05-25T15:13:47.984Z,53.13
2023-05-25T15:16:16.387Z,53.81
2023-05-25T15:18:43.722Z,54.26
2023-05-25T15:21:10.622Z,54.04
2023-05-25T15:23:37.326Z,54.38
2023-05-25T15:26:04.854Z,54.53
2023-05-25T15:28:31.804Z,54.36
2023-05-25T15:31:01.628Z,54.45
2023-05-25T15:33:39.993Z,54.29
2023-05-25T15:36:16.766Z,59.65
2023-05-25T15:38:44.548Z,61.88
2023-05-25T15:41:15.377Z,64.24
2023-05-25T15:43:43.094Z,66.72
2023-05-25T15:46:10.511Z,71.62
2023-05-25T15:48:37.171Z,75.97
2023-05-25T15:51:04.018Z,81.48
2023-05-25T15:53:30.631Z,81.86
2023-05-25T15:55:57.508Z,81.52
2023-05-25T15:58:24.155Z,83.53
2023-05-25T16:00:51.330Z,85.85
2023-05-25T16:03:19.159Z,85.21
2023-05-25T16:05:48.961Z,87.29
2023-05-25T16:08:15.640Z,91.09
2023-05-25T16:10:42.359Z,95.82
2023-05-25T16:13:09.106Z,95.77
2023-05-25T16:15:36.812Z,97.34
2023-05-25T16:18:03.487Z,98.54
2023-05-25T16:20:30.265Z,98.36
2023-05-25T16:22:57.019Z,96.20
2023-05-25T16:25:23.772Z,94.26
2023-05-25T16:27:50.525Z,94.26
2023-05-25T16:30:17.290Z,91.82
2023-05-25T16:32:43.918Z,91.08
2023-05-25T16:35:10.672Z,92.83
2023-05-25T16:37:37.325Z,94.11
2023-05-25T16:40:04.131Z,94.60
2023-05-25T16:42:30.688Z,94.88
2023-05-25T16:44:57.294Z,94.23
2023-05-25T16:47:24.053Z,94.68
2023-05-25T16:49:50.769Z,97.57
2023-05-25T16:52:17.433Z,100.00
2023-05-25T16:54:44.280Z,100.00
2023-05-25T16:57:11.448Z,100.00
2023-05-25T16:59:38.835Z,100.00
2023-05-25T17:02:05.548Z,100.00
2023-05-25T17:04:32.211Z,100.00
2023-05-25T17:06:58.999Z,100.00
2023-05-25T17:09:25.820Z,100.00
2023-05-25T17:11:53.933Z,100.00
2023-05-25T17:14:20.928Z,100.00
2023-05-25T17:16:47.691Z,100.00
2023-05-25T17:19:15.226Z,100.00
2023-05-25T17:21:42.415Z,100.00
2023-05-25T17:24:09.252Z,100.00
2023-05-25T17:26:35.849Z,100.00
2023-05-25T17:29:02.696Z,100.00
2023-05-25T17:31:29.403Z,100.00
2023-05-25T17:33:56.378Z,100.00
2023-05-25T17:36:23.641Z,100.00
2023-05-25T17:38:51.184Z,100.00
2023-05-25T17:41:17.905Z,100.00
2023-05-25T17:43:44.617Z,100.00
2023-05-25T17:46:11.396Z,100.00
2023-05-25T17:48:38.245Z,100.00
2023-05-25T17:51:05.140Z,100.00
2023-05-25T17:53:31.962Z,100.00
2023-05-25T17:55:59.446Z,100.00
2023-05-25T17:58:26.086Z,100.00
2023-05-25T18:00:53.004Z,100.00
2023-05-25T18:03:19.844Z,100.00
2023-05-25T18:05:46.818Z,100.00
2023-05-25T18:08:13.711Z,100.00
2023-05-25T18:10:40.564Z,100.00
2023-05-25T18:13:07.278Z,100.00
2023-05-25T18:15:34.422Z,100.00
2023-05-25T18:18:01.396Z,100.00
2023-05-25T18:20:28.298Z,100.00
2023-05-25T18:22:55.049Z,100.00
2023-05-25T18:25:22.060Z,100.00
2023-05-25T18:27:48.737Z,100.00
2023-05-25T18:30:15.571Z,100.00
2023-05-25T18:32:42.152Z,100.00
2023-05-25T18:35:09.068Z,100.00
2023-05-25T18:37:36.438Z,100.00
2023-05-25T18:40:03.866Z,100.00
2023-05-25T18:42:30.713Z,100.00
2023-05-25T18:44:58.146Z,100.00
2023-05-25T18:47:24.936Z,100.00
2023-05-25T18:49:51.858Z,100.00
2023-05-25T18:52:18.491Z,100.00
2023-05-25T18:54:45.423Z,100.00
2023-05-25T18:57:12.221Z,100.00
2023-05-25T18:59:38.913Z,100.00
2023-05-25T19:02:06.172Z,100.00
2023-05-25T19:04:33.019Z,100.00
2023-05-25T19:07:00.067Z,100.00
2023-05-25T19:09:27.310Z,100.00
2023-05-25T19:11:53.977Z,100.00
2023-05-25T19:14:21.141Z,100.00
2023-05-25T19:16:49.094Z,100.00
2023-05-25T19:19:16.167Z,100.00
2023-05-25T19:21:43.052Z,100.00
2023-05-25T19:24:10.313Z,100.00
2023-05-25T19:26:38.021Z,100.00
2023-05-25T19:29:05.060Z,100.00
2023-05-25T19:31:31.796Z,100.00
2023-05-25T19:33:58.458Z,100.00
2023-05-25T19:36:25.245Z,100.00
2023-05-25T19:38:51.900Z,100.00
2023-05-25T19:41:18.571Z,100.00
2023-05-25T19:43:45.489Z,100.00
2023-05-25T19:46:12.638Z,100.00
2023-05-25T19:48:40.166Z,100.00
2023-05-25T19:51:06.838Z,100.00
2023-05-25T19:53:33.654Z,100.00
2023-05-25T19:56:00.232Z,100.00
2023-05-25T19:58:26.881Z,100.00
2023-05-25T20:00:53.894Z,100.00
2023-05-25T20:03:21.390Z,100.00
2023-05-25T20:05:48.288Z,100.00
2023-05-25T20:08:14.892Z,100.00
2023-05-25T20:10:44.220Z,100.00
2023-05-25T20:13:10.967Z,100.00
2023-05-25T20:15:37.749Z,100.00
2023-05-25T20:18:04.569Z,100.00
2023-05-25T20:20:31.385Z,100.00
2023-05-25T20:22:58.538Z,100.00
2023-05-25T20:25:25.107Z,100.00
2023-05-25T20:27:51.679Z,100.00
2023-05-25T20:30:18.348Z,100.00
2023-05-25T20:32:45.283Z,100.00
2023-05-25T20:35:13.551Z,100.00
2023-05-25T20:37:40.340Z,100.00
2023-05-25T20:40:07.514Z,100.00
2023-05-25T20:42:34.151Z,100.00
2023-05-25T20:45:01.276Z,100.00
2023-05-25T20:47:28.844Z,100.00
2023-05-25T20:49:55.889Z,100.00
2023-05-25T20:52:23.569Z,100.00
2023-05-25T20:54:50.255Z,100.00
2023-05-25T20:57:17.169Z,100.00
2023-05-25T20:59:43.797Z,100.00
2023-05-25T21:02:10.606Z,100.00
2023-05-25T21:04:37.370Z,100.00
2023-05-25T21:07:04.356Z,100.00
2023-05-25T21:09:31.176Z,100.00
2023-05-25T21:11:57.899Z,100.00
2023-05-25T21:14:24.561Z,100.00
2023-05-25T21:16:51.500Z,100.00
2023-05-25T21:19:18.209Z,100.00
2023-05-25T21:21:44.920Z,100.00
2023-05-25T21:24:11.618Z,100.00
2023-05-25T21:26:38.413Z,100.00
2023-05-25T21:29:05.783Z,100.00
2023-05-25T21:31:32.517Z,100.00
2023-05-25T21:34:00.220Z,100.00
2023-05-25T21:36:27.372Z,100.00
2023-05-25T21:38:54.138Z,100.00
2023-05-25T21:41:20.745Z,100.00
2023-05-25T21:43:47.470Z,100.00
2023-05-25T21:46:14.671Z,100.00
2023-05-25T21:48:41.457Z,100.00
2023-05-25T21:51:09.200Z,100.00
2023-05-25T21:53:35.842Z,100.00
2023-05-25T21:56:02.741Z,100.00
2023-05-25T21:58:29.333Z,100.00
2023-05-25T22:00:56.100Z,100.00
2023-05-25T22:03:22.861Z,100.00
2023-05-25T22:05:49.577Z,100.00
2023-05-25T22:08:16.644Z,100.00
2023-05-25T22:10:43.396Z,100.00
2023-05-25T22:13:10.189Z,100.00
2023-05-25T22:15:36.903Z,100.00
2023-05-25T22:18:03.702Z,100.00
2023-05-25T22:20:30.493Z,100.00
2023-05-25T22:22:57.813Z,100.00
2023-05-25T22:25:25.167Z,100.00
2023-05-25T22:27:51.849Z,100.00
2023-05-25T22:30:18.500Z,100.00
2023-05-25T22:32:45.204Z,100.00
2023-05-25T22:35:11.830Z,100.00
2023-05-25T22:37:38.536Z,100.00
2023-05-25T22:40:06.306Z,100.00
2023-05-25T22:42:32.977Z,100.00
2023-05-25T22:45:00.036Z,100.00
2023-05-25T22:47:27.013Z,100.00
2023-05-25T22:49:53.678Z,100.00
2023-05-25T22:52:20.349Z,100.00
2023-05-25T22:54:47.313Z,100.00
2023-05-25T22:57:13.985Z,100.00
2023-05-25T22:59:40.685Z,100.00
2023-05-25T23:02:07.850Z,100.00
2023-05-25T23:04:36.360Z,100.00
2023-05-25T23:07:03.016Z,100.00
2023-05-25T23:09:29.786Z,100.00
2023-05-25T23:11:56.509Z,100.00
2023-05-25T23:14:23.502Z,100.00
2023-05-25T23:16:50.314Z,100.00
2023-05-25T23:19:18.371Z,100.00
2023-05-25T23:21:44.992Z,100.00
2023-05-25T23:24:11.651Z,100.00
2023-05-25T23:26:38.358Z,100.00
2023-05-25T23:29:05.055Z,100.00
2023-05-25T23:31:32.183Z,100.00
2023-05-25T23:33:58.778Z,100.00
2023-05-25T23:36:28.510Z,100.00
2023-05-25T23:38:55.454Z,100.00
2023-05-25T23:41:23.175Z,100.00
2023-05-25T23:43:51.079Z,100.00
2023-05-25T23:46:19.132Z,100.00
2023-05-25T23:48:46.210Z,100.00
2023-05-25T23:51:12.916Z,100.00
2023-05-25T23:53:40.061Z,100.00
2023-05-25T23:56:07.022Z,100.00
2023-05-25T23:58:33.980Z,100.00
